Flight Track Log - Related Links

Times and Time Zones

All times are in EDT time to prevent confusion due to time zone crossing. See the ANT506 flight status page for this flight to view local times or setup timezone preferences in your user account.

Time Position Orientation Groundspeed Altitude Reporting Facility
EDT Latitude Longitude Course Direction KTS MPH feet Rate Location/Type
Mon 02:22:41 PM 49.1833 -123.2667 North 210 242 2,100  Level Vancouver Center
Mon 02:23:41 PM 49.1833 -123.3667 270° West 220 253 5,300 2,750 Climbing Vancouver Center
Mon 02:24:41 PM 49.2333 -123.4167 327° Northwest 220 253 7,600 1,850 Climbing Vancouver Center
Mon 02:25:41 PM 49.3000 -123.4333 351° North 280 322 9,000 700 Climbing Vancouver Center
Mon 02:26:00 PM 49.7482 -123.6778 334° Northwest  Level FlightAware Approximate
Mon 02:26:41 PM 49.3833 -123.4167 North 280 322 9,000  Level Vancouver Center
Mon 02:27:00 PM 49.8461 -123.7500 North  Level FlightAware Approximate
Mon 02:27:41 PM 49.4500 -123.3667 26° Northeast 280 322 9,100  Level Vancouver Center
Mon 02:28:41 PM 49.5333 -123.3333 15° North 290 334 11,200 2,600 Climbing Vancouver Center
Mon 02:29:41 PM 49.6167 -123.3333 360° North 330 380 14,300 3,050 Climbing Vancouver Center
Mon 02:30:41 PM 49.7167 -123.3833 342° North 350 403 17,300 3,150 Climbing Vancouver Center
Mon 02:31:41 PM 49.8167 -123.4333 342° North 370 426 20,600 3,000 Climbing Vancouver Center
Mon 02:32:41 PM 49.9000 -123.5167 327° Northwest 370 426 23,300 2,500 Climbing Vancouver Center
Mon 02:33:41 PM 50.0000 -123.5833 337° Northwest 390 449 25,600 2,200 Climbing Vancouver Center
Mon 02:34:41 PM 50.1000 -123.6667 332° Northwest 400 460 27,700 2,350 Climbing Vancouver Center
Mon 02:35:41 PM 50.2167 -123.7500 335° Northwest 410 472 30,300 2,450 Climbing Vancouver Center
Mon 02:36:41 PM 50.3000 -123.8000 339° North 400 460 32,600 2,100 Climbing Vancouver Center
Mon 02:37:41 PM 50.4000 -123.8833 332° Northwest 390 449 34,500 1,650 Climbing Vancouver Center
Mon 02:38:41 PM 50.5000 -123.9500 337° Northwest 380 437 35,900 750 Climbing Vancouver Center
Mon 02:39:41 PM 50.6000 -124.0333 332° Northwest 390 449 36,000 50 Climbing Vancouver Center
Mon 02:40:41 PM 50.7000 -124.1167 332° Northwest 390 449 36,000  Level Vancouver Center
Mon 02:41:41 PM 50.8000 -124.1667 342° North 390 449 36,000  Level Vancouver Center
Mon 02:42:41 PM 50.9000 -124.2500 332° Northwest 390 449 36,000  Level Vancouver Center
Mon 02:43:41 PM 50.9833 -124.3333 328° Northwest 390 449 36,000  Level Vancouver Center
Mon 02:44:41 PM 51.0833 -124.3833 343° North 390 449 36,000  Level Vancouver Center
Mon 02:45:41 PM 51.1833 -124.4667 332° Northwest 390 449 36,000  Level Vancouver Center
Mon 02:46:41 PM 51.2833 -124.5500 332° Northwest 390 449 36,000  Level Vancouver Center
Mon 02:47:41 PM 51.3833 -124.6333 333° Northwest 390 449 36,000  Level Vancouver Center
Mon 02:48:41 PM 51.4833 -124.7167 333° Northwest 390 449 36,000  Level Vancouver Center
Mon 02:49:41 PM 51.5833 -124.7667 343° North 390 449 36,000  Level Vancouver Center
Mon 02:50:41 PM 51.6667 -124.8500 328° Northwest 390 449 36,000  Level Vancouver Center
Mon 02:51:41 PM 51.7667 -124.9333 333° Northwest 390 449 36,000  Level Vancouver Center
Mon 02:52:41 PM 51.8667 -125.0167 333° Northwest 390 449 36,000  Level Vancouver Center
Mon 02:53:41 PM 51.9667 -125.0667 343° North 390 449 36,000  Level Vancouver Center
Mon 02:54:41 PM 52.0667 -125.1500 333° Northwest 390 449 36,000  Level Vancouver Center
Mon 02:55:41 PM 52.1667 -125.2333 333° Northwest 390 449 36,000  Level Vancouver Center
Mon 02:56:41 PM 52.2500 -125.3167 329° Northwest 390 449 36,000  Level Vancouver Center
Mon 02:57:41 PM 52.3667 -125.3833 341° North 390 449 36,000  Level Vancouver Center
Mon 02:58:41 PM 52.4500 -125.4667 329° Northwest 390 449 36,000  Level Vancouver Center
Mon 02:59:41 PM 52.5500 -125.5500 333° Northwest 390 449 36,000  Level Vancouver Center
Mon 03:00:41 PM 52.6500 -125.6333 333° Northwest 400 460 36,000  Level Vancouver Center
Mon 03:01:41 PM 52.7500 -125.7333 329° Northwest 400 460 36,000  Level Vancouver Center
Mon 03:02:41 PM 52.8500 -125.7833 343° North 400 460 36,000  Level Vancouver Center
Mon 03:03:41 PM 52.9500 -125.8667 333° Northwest 400 460 36,000  Level Vancouver Center
Mon 03:04:41 PM 53.0500 -125.9667 329° Northwest 400 460 36,000  Level Vancouver Center
Mon 03:05:41 PM 53.1333 -126.0500 329° Northwest 400 460 36,000  Level Vancouver Center
Mon 03:06:41 PM 53.2500 -126.1333 337° Northwest 400 460 36,000  Level Vancouver Center
Mon 03:07:41 PM 53.3333 -126.2333 324° Northwest 400 460 36,000  Level Vancouver Center
Mon 03:08:41 PM 53.4333 -126.2833 343° North 410 472 36,000  Level Vancouver Center
Mon 03:09:41 PM 53.5500 -126.3833 333° Northwest 400 460 36,000  Level Vancouver Center
Mon 03:10:41 PM 53.6333 -126.4667 329° Northwest 400 460 36,000  Level Vancouver Center
Mon 03:11:41 PM 53.7500 -126.5667 333° Northwest 400 460 36,000  Level Vancouver Center
Mon 03:12:41 PM 53.8500 -126.6500 334° Northwest 400 460 36,000  Level Vancouver Center
Mon 03:13:41 PM 53.9500 -126.7500 330° Northwest 400 460 36,000  Level Vancouver Center
Mon 03:14:41 PM 54.0500 -126.8333 334° Northwest 410 472 36,000  Level Vancouver Center
Mon 03:15:41 PM 54.1333 -126.9333 325° Northwest 410 472 36,000  Level Vancouver Center
Mon 03:16:41 PM 54.2333 -127.0167 334° Northwest 410 472 36,000  Level Vancouver Center
Mon 03:17:41 PM 54.3333 -127.0833 339° North 410 472 36,000  Level Vancouver Center
Mon 03:18:41 PM 54.4500 -127.1833 334° Northwest 410 472 36,000  Level Vancouver Center
Mon 03:19:41 PM 54.5500 -127.2833 330° Northwest 410 472 36,000  Level Vancouver Center
Mon 03:20:41 PM 54.6500 -127.3667 334° Northwest 420 483 36,000  Level Vancouver Center
Mon 03:21:41 PM 54.7667 -127.4667 334° Northwest 410 472 36,000  Level Vancouver Center
Mon 03:22:41 PM 54.8500 -127.5667 325° Northwest 420 483 36,000  Level Vancouver Center
Mon 03:23:41 PM 54.9500 -127.6667 330° Northwest 410 472 36,000  Level Vancouver Center
Mon 03:24:41 PM 55.0500 -127.7500 334° Northwest 400 460 36,000  Level Vancouver Center
Mon 03:25:41 PM 55.1500 -127.8500 330° Northwest 390 449 36,000  Level Vancouver Center
Mon 03:26:41 PM 55.2667 -127.9500 334° Northwest 420 483 36,000  Level Vancouver Center
Mon 03:27:41 PM 55.3667 -128.0500 330° Northwest 410 472 36,000  Level Vancouver Center
Mon 03:28:41 PM 55.4667 -128.1500 330° Northwest 410 472 36,000  Level Vancouver Center
Mon 03:29:41 PM 55.5500 -128.2500 326° Northwest 420 483 36,000  Level Vancouver Center
Mon 03:30:41 PM 55.6500 -128.3500 331° Northwest 420 483 36,000  Level Vancouver Center
Mon 03:31:41 PM 55.7667 -128.4500 334° Northwest 430 495 36,000  Level Vancouver Center
Mon 03:32:41 PM 55.8833 -128.5500 334° Northwest 430 495 36,000  Level Vancouver Center
Mon 03:33:41 PM 55.9833 -128.6833 323° Northwest 420 483 36,000  Level Vancouver Center
Mon 03:34:41 PM 56.0667 -128.7500 336° Northwest 410 472 36,000  Level Vancouver Center
Mon 03:35:41 PM 56.1833 -128.8500 335° Northwest 430 495 36,000  Level Vancouver Center
Mon 03:36:41 PM 56.2833 -128.9667 327° Northwest 410 472 36,000  Level Vancouver Center
Mon 03:37:41 PM 56.3833 -129.0667 331° Northwest 450 518 36,000  Level Vancouver Center
Mon 03:38:41 PM 56.4833 -129.1667 331° Northwest 430 495 36,000  Level Vancouver Center
Mon 03:39:41 PM 56.5833 -129.2667 331° Northwest 440 506 36,000  Level Vancouver Center
Mon 03:40:41 PM 56.7000 -129.3833 331° Northwest 440 506 36,000  Level Vancouver Center
Mon 03:41:41 PM 56.7833 -129.4833 327° Northwest 410 472 36,000  Level Vancouver Center
Mon 03:42:41 PM 56.9000 -129.6167 328° Northwest 440 506 36,000  Level Vancouver Center
Mon 03:43:41 PM 56.9833 -129.7333 323° Northwest 440 506 36,000  Level Vancouver Center
Mon 03:44:41 PM 57.0833 -129.8667 324° Northwest 400 460 36,000  Level Vancouver Center
Mon 03:45:41 PM 57.1667 -129.9667 327° Northwest 420 483 36,000  Level Vancouver Center
Mon 03:47:00 PM 57.2805 -130.1113 326° Northwest  Level FlightAware Approximate
Mon 03:54:00 PM 57.8781 -130.9075 324° Northwest  Level FlightAware Approximate
Mon 03:55:00 PM 57.9621 -131.0259 323° Northwest  Level FlightAware Approximate
Mon 03:56:00 PM 58.0460 -131.1448 323° Northwest  Level FlightAware Approximate
Mon 03:57:00 PM 58.1298 -131.2643 323° Northwest  Level FlightAware Approximate
Mon 03:58:00 PM 58.2135 -131.3843 323° Northwest  Level FlightAware Approximate
Mon 03:59:00 PM 58.2971 -131.5049 323° Northwest  Level FlightAware Approximate
Mon 04:00:00 PM 58.3812 -131.6242 324° Northwest  Level FlightAware Approximate
Mon 04:01:00 PM 58.4655 -131.7436 324° Northwest  Level FlightAware Approximate
Mon 04:02:00 PM 58.5497 -131.8635 323° Northwest  Level FlightAware Approximate
Mon 04:03:00 PM 58.6338 -131.9840 322° Northwest  Level FlightAware Approximate
Mon 04:04:00 PM 58.7155 -132.1104 318° Northwest  Level FlightAware Approximate
Mon 04:05:00 PM 58.7954 -132.2411 323° Northwest  Level FlightAware Approximate
Mon 04:06:00 PM 58.8796 -132.3620 323° Northwest  Level FlightAware Approximate
Mon 04:07:00 PM 58.9637 -132.4836 323° Northwest  Level FlightAware Approximate
Mon 04:08:00 PM 59.0477 -132.6057 323° Northwest  Level FlightAware Approximate
Mon 04:09:00 PM 59.1310 -132.7299 322° Northwest  Level FlightAware Approximate
Mon 04:10:00 PM 59.2099 -132.8648 323° Northwest  Level FlightAware Approximate
Mon 04:11:00 PM 59.2932 -132.9897 323° Northwest  Level FlightAware Approximate
Mon 04:12:00 PM 59.3774 -133.1122 324° Northwest  Level FlightAware Approximate
Mon 04:13:00 PM 59.4617 -133.2350 323° Northwest  Level FlightAware Approximate
Mon 04:14:00 PM 59.5437 -133.3640 321° Northwest  Level FlightAware Approximate
Mon 04:15:00 PM 59.6248 -133.4955 321° Northwest  Level FlightAware Approximate
Mon 04:16:00 PM 59.7058 -133.6276 321° Northwest  Level FlightAware Approximate
Mon 04:17:00 PM 59.7868 -133.7600 321° Northwest  Level FlightAware Approximate
Mon 04:18:00 PM 59.8678 -133.8927 321° Northwest  Level FlightAware Approximate
Mon 04:19:00 PM 59.9486 -134.0261 320° Northwest  Level FlightAware Approximate
Mon 04:20:00 PM 60.0294 -134.1601 320° Northwest  Level FlightAware Approximate
Mon 04:21:00 PM 60.1101 -134.2944 320° Northwest  Level FlightAware Approximate
Mon 04:22:00 PM 60.1915 -134.4275 321° Northwest  Level FlightAware Approximate
Mon 04:23:00 PM 60.2731 -134.5602 322° Northwest  Level FlightAware Approximate
Mon 04:24:00 PM 60.3554 -134.6916 322° Northwest  Level FlightAware Approximate
Mon 04:25:00 PM 60.4375 -134.8239 319° Northwest  Level FlightAware Approximate
Mon 04:26:00 PM 60.5170 -134.9628 319° Northwest  Level FlightAware Approximate
Mon 04:27:00 PM 60.5971 -135.1007 321° Northwest  Level FlightAware Approximate
Mon 04:28:00 PM 60.6907 -135.0737 20° North  Level FlightAware Approximate
Mon 04:29:00 PM 60.7000 -135.0667 20° North  Level FlightAware Approximate
Mon 04:30:00 PM 60.7095 -135.0673 20° North  Level Estimated
Mon 04:31:00 PM 60.7095 -135.0673 20° North  Level Estimated
Mon 04:32:00 PM 60.7095 -135.0673 20° North  Level Estimated

Login

Don't have an account? Register now (free) for customized features, flight alerts, and more!